createdAt,value
2024-03-11T00:00:45.305Z,18.83
2024-03-11T00:03:13.639Z,18.70
2024-03-11T00:05:41.876Z,16.67
2024-03-11T00:08:10.715Z,16.07
2024-03-11T00:10:39.779Z,18.50
2024-03-11T00:13:10.588Z,17.13
2024-03-11T00:15:39.599Z,18.13
2024-03-11T00:18:09.086Z,16.07
2024-03-11T00:20:37.241Z,16.10
2024-03-11T00:23:05.108Z,15.93
2024-03-11T00:25:32.601Z,19.73
2024-03-11T00:28:00.447Z,17.23
2024-03-11T00:30:27.897Z,17.60
2024-03-11T00:32:55.523Z,17.23
2024-03-11T00:35:25.616Z,16.30
2024-03-11T00:37:53.169Z,18.93
2024-03-11T00:40:21.133Z,17.80
2024-03-11T00:42:48.652Z,15.87
2024-03-11T00:45:16.177Z,16.13
2024-03-11T00:47:44.419Z,15.73
2024-03-11T00:50:14.774Z,16.10
2024-03-11T00:52:45.978Z,17.23
2024-03-11T00:55:13.844Z,16.87
2024-03-11T00:57:43.685Z,15.07
2024-03-11T01:00:13.771Z,16.10
2024-03-11T01:02:42.765Z,16.53
2024-03-11T01:05:11.383Z,15.53
2024-03-11T01:07:45.640Z,16.37
2024-03-11T01:10:16.893Z,18.40
2024-03-11T01:12:46.195Z,17.53
2024-03-11T01:15:14.130Z,19.27
2024-03-11T01:17:42.586Z,18.43
2024-03-11T01:20:14.805Z,17.03
2024-03-11T01:22:42.751Z,14.83
2024-03-11T01:25:11.906Z,14.30
2024-03-11T01:27:42.878Z,17.23
2024-03-11T01:30:11.480Z,17.77
2024-03-11T01:32:39.637Z,14.80
2024-03-11T01:35:07.765Z,15.83
2024-03-11T01:37:37.633Z,16.87
2024-03-11T01:40:11.198Z,15.73
2024-03-11T01:42:39.854Z,16.43
2024-03-11T01:45:09.453Z,14.07
2024-03-11T01:47:39.174Z,18.50
2024-03-11T01:50:09.479Z,17.87
2024-03-11T01:52:39.451Z,15.37
2024-03-11T01:55:07.620Z,17.03
2024-03-11T01:57:35.462Z,17.60
2024-03-11T02:00:09.517Z,15.03
2024-03-11T02:02:39.977Z,17.97
2024-03-11T02:05:10.668Z,14.70
2024-03-11T02:07:38.977Z,16.87
2024-03-11T02:10:09.276Z,16.43
2024-03-11T02:12:37.566Z,16.07
2024-03-11T02:15:06.485Z,17.13
2024-03-11T02:17:36.961Z,18.73
2024-03-11T02:20:09.375Z,15.70
2024-03-11T02:22:37.535Z,16.97
2024-03-11T02:25:06.954Z,15.87
2024-03-11T02:27:34.534Z,15.97
2024-03-11T02:30:02.286Z,15.87
2024-03-11T02:32:30.071Z,16.77
2024-03-11T02:34:57.691Z,16.87
2024-03-11T02:37:25.253Z,18.80
2024-03-11T02:39:52.996Z,14.33
2024-03-11T02:42:21.855Z,18.03
2024-03-11T02:44:49.933Z,18.53
2024-03-11T02:47:18.210Z,15.63
2024-03-11T02:49:45.829Z,17.37
2024-03-11T02:52:13.394Z,16.37
2024-03-11T02:54:42.123Z,13.97
2024-03-11T02:57:09.863Z,13.93
2024-03-11T02:59:41.732Z,18.90
2024-03-11T03:02:09.888Z,15.47
2024-03-11T03:04:40.550Z,16.93
2024-03-11T03:07:08.401Z,16.93
2024-03-11T03:09:37.689Z,17.07
2024-03-11T03:12:05.890Z,14.07
2024-03-11T03:14:33.507Z,15.67
2024-03-11T03:17:02.314Z,16.07
2024-03-11T03:19:29.858Z,15.90
2024-03-11T03:21:57.406Z,15.60
2024-03-11T03:24:24.922Z,15.30
2024-03-11T03:26:52.507Z,15.20
2024-03-11T03:29:20.486Z,14.73
2024-03-11T03:31:48.075Z,14.67
2024-03-11T03:34:16.823Z,14.97
2024-03-11T03:36:44.508Z,13.83
2024-03-11T03:39:12.061Z,16.20
2024-03-11T03:41:39.643Z,15.17
2024-03-11T03:44:07.371Z,14.73
2024-03-11T03:46:34.916Z,18.83
2024-03-11T03:49:02.516Z,17.27
2024-03-11T03:51:31.331Z,15.40
2024-03-11T03:54:00.279Z,15.87
2024-03-11T03:56:27.978Z,17.70
2024-03-11T03:58:56.037Z,17.83
2024-03-11T04:01:24.782Z,15.63
2024-03-11T04:03:52.437Z,16.40
2024-03-11T04:06:19.928Z,15.70
2024-03-11T04:08:48.791Z,17.17
2024-03-11T04:11:16.338Z,17.50
2024-03-11T04:13:43.860Z,15.10
2024-03-11T04:16:13.205Z,17.63
2024-03-11T04:18:43.927Z,15.37
2024-03-11T04:21:13.084Z,16.37
2024-03-11T04:23:41.282Z,17.53
2024-03-11T04:26:10.287Z,15.03
2024-03-11T04:28:37.957Z,15.13
2024-03-11T04:31:06.143Z,15.50
2024-03-11T04:33:35.159Z,15.93
2024-03-11T04:36:03.024Z,17.33
2024-03-11T04:38:30.716Z,15.20
2024-03-11T04:40:58.305Z,17.47
2024-03-11T04:43:27.836Z,16.50
2024-03-11T04:45:56.088Z,14.63
2024-03-11T04:48:23.819Z,15.80
2024-03-11T04:50:51.457Z,14.87
2024-03-11T04:53:19.138Z,13.97
2024-03-11T04:55:48.060Z,13.80
2024-03-11T04:58:15.728Z,15.03
2024-03-11T05:00:44.526Z,15.37
2024-03-11T05:03:14.263Z,14.20
2024-03-11T05:05:42.208Z,16.73
2024-03-11T05:08:10.769Z,14.20
2024-03-11T05:10:39.218Z,14.53
2024-03-11T05:13:07.069Z,15.67
2024-03-11T05:15:34.781Z,14.00
2024-03-11T05:18:04.328Z,18.80
2024-03-11T05:20:32.151Z,15.57
2024-03-11T05:22:59.730Z,16.23
2024-03-11T05:25:27.688Z,15.23
2024-03-11T05:27:55.231Z,15.80
2024-03-11T05:30:23.170Z,14.83
2024-03-11T05:32:50.727Z,15.77
2024-03-11T05:35:23.045Z,14.90
2024-03-11T05:37:53.366Z,13.63
2024-03-11T05:40:20.937Z,15.03
2024-03-11T05:42:49.693Z,15.43
2024-03-11T05:45:17.558Z,15.03
2024-03-11T05:47:46.602Z,13.80
2024-03-11T05:50:15.978Z,14.93
2024-03-11T05:52:47.384Z,13.97
2024-03-11T05:55:15.236Z,13.80
2024-03-11T05:57:44.634Z,13.73
2024-03-11T06:00:17.364Z,14.07
2024-03-11T06:02:46.339Z,13.23
2024-03-11T06:05:15.340Z,14.07
2024-03-11T06:07:43.568Z,14.83
2024-03-11T06:10:12.915Z,14.83
2024-03-11T06:12:40.926Z,14.77
2024-03-11T06:15:09.801Z,14.23
2024-03-11T06:17:37.380Z,30.27
2024-03-11T06:20:10.633Z,17.07
2024-03-11T06:22:39.188Z,16.73
2024-03-11T06:25:07.834Z,13.27
2024-03-11T06:27:37.367Z,14.40
2024-03-11T06:30:06.137Z,23.63
2024-03-11T06:32:35.009Z,16.40
2024-03-11T06:35:04.373Z,13.90
2024-03-11T06:37:33.017Z,14.50
2024-03-11T06:40:00.658Z,15.00
2024-03-11T06:42:30.166Z,14.67
2024-03-11T06:44:59.018Z,15.23
2024-03-11T06:47:26.925Z,14.67
2024-03-11T06:49:54.551Z,15.53
2024-03-11T06:52:22.718Z,14.83
2024-03-11T06:54:50.475Z,14.27
2024-03-11T06:57:18.070Z,15.17
2024-03-11T06:59:46.499Z,14.07
2024-03-11T07:02:15.717Z,13.97
2024-03-11T07:04:43.835Z,16.77
2024-03-11T07:07:11.295Z,13.60
2024-03-11T07:09:38.728Z,15.33
2024-03-11T07:12:05.595Z,14.13
2024-03-11T07:14:33.150Z,14.33
2024-03-11T07:17:03.475Z,15.10
2024-03-11T07:19:32.579Z,14.30
2024-03-11T07:22:00.087Z,16.27
2024-03-11T07:24:28.251Z,14.03
2024-03-11T07:26:56.518Z,14.23
2024-03-11T07:29:24.025Z,16.13
2024-03-11T07:31:55.112Z,14.80
2024-03-11T07:34:24.502Z,14.20
2024-03-11T07:36:56.801Z,12.20
2024-03-11T07:39:25.626Z,15.17
2024-03-11T07:41:54.201Z,14.10
2024-03-11T07:44:21.908Z,14.50
2024-03-11T07:46:49.424Z,13.03
2024-03-11T07:49:17.149Z,13.20
2024-03-11T07:51:44.653Z,13.90
2024-03-11T07:54:13.471Z,13.60
2024-03-11T07:56:41.886Z,15.60
2024-03-11T07:59:09.615Z,14.70
2024-03-11T08:01:37.631Z,15.70
2024-03-11T08:04:07.226Z,14.20
2024-03-11T08:06:36.293Z,14.27
2024-03-11T08:09:04.127Z,13.77
2024-03-11T08:11:33.190Z,13.67
2024-03-11T08:14:00.657Z,15.93
2024-03-11T08:16:28.387Z,13.53
2024-03-11T08:18:55.902Z,17.20
2024-03-11T08:21:23.747Z,14.43
2024-03-11T08:23:51.259Z,14.77
2024-03-11T08:26:19.369Z,15.40
2024-03-11T08:28:48.133Z,14.77
2024-03-11T08:31:15.744Z,16.40
2024-03-11T08:33:43.225Z,15.53
2024-03-11T08:36:10.837Z,14.33
2024-03-11T08:38:39.373Z,14.63
2024-03-11T08:41:07.768Z,18.23
2024-03-11T08:43:35.422Z,15.73
2024-03-11T08:46:04.450Z,16.00
2024-03-11T08:48:32.282Z,17.57
2024-03-11T08:51:00.561Z,15.33
2024-03-11T08:53:28.699Z,19.00
2024-03-11T08:55:57.321Z,17.37
2024-03-11T08:58:25.841Z,16.17
2024-03-11T09:00:53.757Z,16.67
2024-03-11T09:03:24.413Z,18.40
2024-03-11T09:05:51.915Z,19.27
2024-03-11T09:08:19.739Z,18.70
2024-03-11T09:10:48.051Z,19.60
2024-03-11T09:13:15.519Z,18.33
2024-03-11T09:15:45.836Z,18.67
2024-03-11T09:18:14.379Z,20.30
2024-03-11T09:20:46.703Z,19.13
2024-03-11T09:23:14.926Z,20.10
2024-03-11T09:25:42.567Z,18.37
2024-03-11T09:28:10.411Z,21.90
2024-03-11T09:30:39.258Z,21.67
2024-03-11T09:33:10.108Z,25.33
2024-03-11T09:35:37.922Z,24.00
2024-03-11T09:38:07.081Z,25.97
2024-03-11T09:40:34.537Z,30.17
2024-03-11T09:43:04.473Z,24.83
2024-03-11T09:45:36.136Z,24.80
2024-03-11T09:48:05.533Z,25.13
2024-03-11T09:50:35.011Z,24.30
2024-03-11T09:53:07.999Z,24.57
2024-03-11T09:55:38.756Z,23.03
2024-03-11T09:58:11.884Z,25.17
2024-03-11T10:00:50.515Z,24.53
2024-03-11T10:03:21.934Z,23.87
2024-03-11T10:05:49.672Z,24.13
2024-03-11T10:08:19.612Z,23.27
2024-03-11T10:11:13.350Z,24.10
2024-03-11T10:13:43.457Z,23.17
2024-03-11T10:16:18.418Z,23.73
2024-03-11T10:18:55.233Z,23.93
2024-03-11T10:21:23.071Z,24.57
2024-03-11T10:23:50.963Z,27.17
2024-03-11T10:26:19.863Z,23.80
2024-03-11T10:28:48.903Z,22.90
2024-03-11T10:31:24.946Z,23.73
2024-03-11T10:33:55.182Z,23.83
2024-03-11T10:36:26.195Z,22.50
2024-03-11T10:38:58.832Z,22.70
2024-03-11T10:41:29.347Z,22.00
2024-03-11T10:43:58.498Z,21.30
2024-03-11T10:46:26.295Z,23.33
2024-03-11T10:48:55.501Z,21.57
2024-03-11T10:51:23.558Z,21.80
2024-03-11T10:53:53.559Z,21.90
2024-03-11T10:56:24.934Z,20.83
2024-03-11T10:58:57.011Z,20.90
2024-03-11T11:01:34.426Z,21.97
2024-03-11T11:04:07.163Z,23.20
2024-03-11T11:06:35.230Z,21.60
2024-03-11T11:09:12.346Z,21.70
2024-03-11T11:11:43.560Z,22.07
2024-03-11T11:14:13.039Z,22.50
2024-03-11T11:16:44.794Z,21.50
2024-03-11T11:19:16.042Z,21.60
2024-03-11T11:21:45.475Z,22.03
2024-03-11T11:24:32.627Z,22.33
2024-03-11T11:27:07.639Z,22.43
2024-03-11T11:29:37.069Z,20.67
2024-03-11T11:32:06.630Z,20.17
2024-03-11T11:34:49.012Z,20.37
2024-03-11T11:37:35.038Z,19.93
2024-03-11T11:40:30.482Z,19.57
2024-03-11T11:42:59.853Z,19.77
2024-03-11T11:45:57.451Z,18.97
2024-03-11T11:48:27.870Z,19.80
2024-03-11T11:51:00.312Z,19.53
2024-03-11T11:53:34.543Z,18.13
2024-03-11T11:56:05.121Z,17.93
2024-03-11T11:58:33.950Z,18.37
2024-03-11T12:01:05.814Z,18.70
2024-03-11T12:03:36.308Z,17.40
2024-03-11T12:06:19.294Z,16.90
2024-03-11T12:08:48.237Z,17.50
2024-03-11T12:11:19.132Z,16.80
2024-03-11T12:13:46.329Z,24.40
2024-03-11T12:16:24.960Z,16.77
2024-03-11T12:19:01.256Z,16.20
2024-03-11T12:21:30.432Z,15.87
2024-03-11T12:23:58.174Z,14.33
2024-03-11T12:26:32.020Z,15.53
2024-03-11T12:29:02.357Z,15.27
2024-03-11T12:31:34.015Z,14.17
2024-03-11T12:34:03.385Z,17.07
2024-03-11T12:36:31.598Z,14.30
2024-03-11T12:38:59.777Z,13.90
2024-03-11T12:41:42.095Z,16.57
2024-03-11T12:44:18.193Z,14.73
2024-03-11T12:46:49.149Z,15.33
2024-03-11T12:49:16.738Z,15.60
2024-03-11T12:51:44.494Z,15.20
2024-03-11T12:54:20.655Z,14.50
2024-03-11T12:57:05.870Z,14.00
2024-03-11T12:59:34.348Z,13.63
2024-03-11T13:02:18.360Z,14.33
2024-03-11T13:04:47.856Z,13.00
2024-03-11T13:07:15.921Z,12.00
2024-03-11T13:09:44.443Z,10.40
2024-03-11T13:12:18.217Z,11.30
2024-03-11T13:14:47.141Z,9.57
2024-03-11T13:17:19.375Z,8.83
2024-03-11T13:19:48.454Z,9.83
2024-03-11T13:22:19.879Z,10.23
2024-03-11T13:24:48.271Z,10.13
2024-03-11T13:27:16.446Z,10.23
2024-03-11T13:29:44.082Z,8.73
2024-03-11T13:32:13.469Z,8.80
2024-03-11T13:34:43.668Z,8.80
2024-03-11T13:37:11.540Z,8.93
2024-03-11T13:39:39.947Z,9.50
2024-03-11T13:42:10.636Z,8.40
2024-03-11T13:44:38.650Z,9.10
2024-03-11T13:47:07.526Z,7.53
2024-03-11T13:49:34.967Z,7.97
2024-03-11T13:52:06.312Z,7.30
2024-03-11T13:54:38.192Z,8.10
2024-03-11T13:57:08.360Z,6.77
2024-03-11T13:59:36.185Z,5.70
2024-03-11T14:02:04.097Z,6.50
2024-03-11T14:04:31.759Z,6.47
2024-03-11T14:06:59.723Z,5.70
2024-03-11T14:09:28.624Z,5.70
2024-03-11T14:11:56.082Z,6.13
2024-03-11T14:14:24.792Z,5.00
2024-03-11T14:16:52.985Z,4.87
2024-03-11T14:19:20.586Z,4.53
2024-03-11T14:21:48.743Z,4.03
2024-03-11T14:24:16.608Z,3.03
2024-03-11T14:26:45.577Z,4.10
2024-03-11T14:29:16.464Z,3.30
2024-03-11T14:31:46.266Z,3.30
2024-03-11T14:34:15.097Z,3.30
2024-03-11T14:36:44.867Z,3.00
2024-03-11T14:39:18.198Z,4.07
2024-03-11T14:41:48.520Z,1.70
2024-03-11T14:44:16.648Z,1.83
2024-03-11T14:46:53.189Z,1.60
2024-03-11T14:49:26.537Z,2.03
2024-03-11T14:51:56.107Z,1.80
2024-03-11T14:54:27.079Z,1.80
2024-03-11T14:56:57.740Z,1.83
2024-03-11T14:59:26.404Z,2.10
2024-03-11T15:01:56.490Z,3.50
2024-03-11T15:04:26.914Z,2.00
2024-03-11T15:06:54.959Z,1.73
2024-03-11T15:09:23.228Z,2.13
2024-03-11T15:11:53.748Z,2.90
2024-03-11T15:14:22.585Z,1.50
2024-03-11T15:16:56.719Z,1.80
2024-03-11T15:19:25.340Z,2.20
2024-03-11T15:21:53.032Z,1.70
2024-03-11T15:24:22.293Z,1.60
2024-03-11T15:26:51.068Z,1.60
2024-03-11T15:29:18.642Z,2.30
2024-03-11T15:31:48.967Z,2.07
2024-03-11T15:34:16.698Z,1.87
2024-03-11T15:36:44.284Z,3.00
2024-03-11T15:39:12.546Z,2.60
2024-03-11T15:41:40.726Z,1.60
2024-03-11T15:44:10.918Z,1.70
2024-03-11T15:46:40.057Z,1.80
2024-03-11T15:49:09.129Z,2.00
2024-03-11T15:51:37.068Z,4.50
2024-03-11T15:54:06.763Z,2.90
2024-03-11T15:56:35.193Z,2.40
2024-03-11T15:59:02.638Z,2.30
2024-03-11T16:01:32.849Z,2.00
2024-03-11T16:04:01.631Z,3.80
2024-03-11T16:06:31.409Z,2.07
2024-03-11T16:08:59.000Z,1.83
2024-03-11T16:11:27.183Z,2.00
2024-03-11T16:13:54.394Z,3.40
2024-03-11T16:16:22.274Z,2.17
2024-03-11T16:18:49.018Z,2.90
2024-03-11T16:21:16.574Z,1.80
2024-03-11T16:23:47.172Z,3.87
2024-03-11T16:26:15.556Z,3.73
2024-03-11T16:28:43.868Z,3.03
2024-03-11T16:31:13.347Z,2.13
2024-03-11T16:33:41.025Z,2.00
2024-03-11T16:36:11.105Z,2.63
2024-03-11T16:38:37.682Z,2.30
2024-03-11T16:41:06.538Z,2.33
2024-03-11T16:43:33.370Z,3.53
2024-03-11T16:46:02.873Z,2.27
2024-03-11T16:48:29.675Z,2.93
2024-03-11T16:50:57.194Z,2.37
2024-03-11T16:53:23.826Z,2.30
2024-03-11T16:55:55.106Z,2.20
2024-03-11T16:58:25.447Z,2.03
2024-03-11T17:00:53.737Z,2.30
2024-03-11T17:03:21.542Z,2.90
2024-03-11T17:05:49.740Z,2.33
2024-03-11T17:08:17.221Z,3.20
2024-03-11T17:10:46.781Z,5.13
2024-03-11T17:13:15.858Z,3.40
2024-03-11T17:15:44.997Z,3.63
2024-03-11T17:18:13.595Z,3.73
2024-03-11T17:20:46.027Z,4.20
2024-03-11T17:23:17.196Z,4.73
2024-03-11T17:25:45.999Z,4.47
2024-03-11T17:28:17.334Z,3.60
2024-03-11T17:30:47.948Z,4.90
2024-03-11T17:33:15.735Z,4.33
2024-03-11T17:35:46.366Z,3.50
2024-03-11T17:38:14.727Z,3.20
2024-03-11T17:40:44.025Z,2.90
2024-03-11T17:43:11.802Z,3.23
2024-03-11T17:45:43.115Z,3.40
2024-03-11T17:48:12.184Z,3.90
2024-03-11T17:50:40.351Z,5.07
2024-03-11T17:53:07.466Z,4.73
2024-03-11T17:55:38.184Z,3.70
2024-03-11T17:58:06.013Z,5.10
2024-03-11T18:00:35.374Z,4.43
2024-03-11T18:03:03.749Z,3.47
2024-03-11T18:05:33.696Z,4.77
2024-03-11T18:08:01.066Z,3.70
2024-03-11T18:10:33.181Z,4.67
2024-03-11T18:13:01.514Z,3.40
2024-03-11T18:15:29.884Z,3.43
2024-03-11T18:17:56.856Z,4.63
2024-03-11T18:20:28.065Z,3.67
2024-03-11T18:22:57.264Z,3.43
2024-03-11T18:25:26.140Z,6.00
2024-03-11T18:27:57.840Z,3.60
2024-03-11T18:30:26.453Z,3.73
2024-03-11T18:32:57.091Z,4.57
2024-03-11T18:35:26.596Z,4.90
2024-03-11T18:37:54.835Z,4.30
2024-03-11T18:40:24.682Z,4.93
2024-03-11T18:42:53.353Z,4.60
2024-03-11T18:45:24.218Z,4.27
2024-03-11T18:47:52.006Z,5.10
2024-03-11T18:50:20.941Z,6.17
2024-03-11T18:52:58.406Z,4.67
2024-03-11T18:55:31.582Z,6.23
2024-03-11T18:58:00.809Z,5.93
2024-03-11T19:00:30.911Z,6.67
2024-03-11T19:03:00.335Z,6.47
2024-03-11T19:05:28.637Z,9.60
2024-03-11T19:07:57.181Z,9.47
2024-03-11T19:10:28.034Z,10.67
2024-03-11T19:12:57.826Z,9.47
2024-03-11T19:15:28.837Z,13.23
2024-03-11T19:17:56.886Z,12.37
2024-03-11T19:20:26.805Z,11.07
2024-03-11T19:22:56.084Z,11.60
2024-03-11T19:25:28.012Z,12.80
2024-03-11T19:27:58.281Z,13.37
2024-03-11T19:30:29.121Z,10.33
2024-03-11T19:32:58.529Z,13.30
2024-03-11T19:35:26.402Z,13.33
2024-03-11T19:38:49.861Z,12.30
2024-03-11T19:41:27.198Z,12.53
2024-03-11T19:44:17.350Z,8.57
2024-03-11T19:47:18.023Z,11.40
2024-03-11T19:50:12.336Z,11.53
2024-03-11T19:53:58.863Z,12.00
2024-03-11T19:57:26.323Z,10.30
2024-03-11T20:00:35.484Z,10.00
2024-03-11T20:03:19.207Z,11.87
2024-03-11T20:06:21.693Z,8.70
2024-03-11T20:09:19.322Z,11.60
2024-03-11T20:12:31.132Z,14.60
2024-03-11T20:15:02.648Z,12.83
2024-03-11T20:17:54.072Z,15.57
2024-03-11T20:20:55.009Z,14.30
2024-03-11T20:23:59.594Z,17.93
2024-03-11T20:26:31.709Z,14.07
2024-03-11T20:29:07.151Z,13.77
2024-03-11T20:31:53.256Z,14.87
2024-03-11T20:34:21.136Z,12.43
2024-03-11T20:36:49.214Z,14.37
2024-03-11T20:39:17.707Z,13.43
2024-03-11T20:41:45.273Z,14.20
2024-03-11T20:44:12.751Z,12.60
2024-03-11T20:46:41.515Z,12.07
2024-03-11T20:49:09.340Z,11.83
2024-03-11T20:51:40.635Z,11.53
2024-03-11T20:54:08.486Z,8.53
2024-03-11T20:56:35.988Z,13.57
2024-03-11T20:59:03.663Z,13.73
2024-03-11T21:01:32.482Z,10.17
2024-03-11T21:04:01.979Z,9.47
2024-03-11T21:06:29.517Z,9.10
2024-03-11T21:08:57.012Z,7.93
2024-03-11T21:11:25.031Z,7.77
2024-03-11T21:13:52.556Z,6.30
2024-03-11T21:16:20.601Z,7.70
2024-03-11T21:18:59.083Z,8.23
2024-03-11T21:21:54.715Z,8.03
2024-03-11T21:24:40.351Z,15.93
2024-03-11T21:27:17.055Z,11.10
2024-03-11T21:29:44.779Z,12.90
2024-03-11T21:32:14.276Z,8.63
2024-03-11T21:34:46.022Z,8.77
2024-03-11T21:37:15.939Z,11.13
2024-03-11T21:39:44.689Z,11.47
2024-03-11T21:42:13.022Z,13.10
2024-03-11T21:44:40.665Z,13.40
2024-03-11T21:47:08.144Z,9.80
2024-03-11T21:49:35.598Z,11.87
2024-03-11T21:52:03.094Z,8.27
2024-03-11T21:54:35.074Z,6.90
2024-03-11T21:57:04.523Z,6.93
2024-03-11T21:59:32.011Z,11.20
2024-03-11T22:01:59.539Z,9.43
2024-03-11T22:04:27.084Z,8.27
2024-03-11T22:06:54.558Z,9.17
2024-03-11T22:09:23.957Z,8.53
2024-03-11T22:11:52.829Z,10.87
2024-03-11T22:14:20.367Z,10.57
2024-03-11T22:16:47.841Z,9.83
2024-03-11T22:19:15.302Z,8.80
2024-03-11T22:21:42.822Z,7.33
2024-03-11T22:24:11.806Z,7.47
2024-03-11T22:26:42.514Z,7.27
2024-03-11T22:29:12.733Z,7.87
2024-03-11T22:31:40.867Z,6.73
2024-03-11T22:34:08.744Z,8.63
2024-03-11T22:36:38.276Z,8.27
2024-03-11T22:39:08.945Z,7.93
2024-03-11T22:41:36.557Z,7.43
2024-03-11T22:44:04.138Z,10.63
2024-03-11T22:46:33.131Z,6.83
2024-03-11T22:49:08.508Z,9.63
2024-03-11T22:51:41.109Z,8.37
2024-03-11T22:54:09.102Z,7.10
2024-03-11T22:56:37.909Z,11.03
2024-03-11T22:59:07.383Z,9.63
2024-03-11T23:01:36.447Z,14.13
2024-03-11T23:04:04.353Z,10.53
2024-03-11T23:06:33.417Z,9.87
2024-03-11T23:09:01.086Z,15.63
2024-03-11T23:11:28.777Z,9.33
2024-03-11T23:13:57.363Z,11.17
2024-03-11T23:16:26.844Z,14.70
2024-03-11T23:18:55.727Z,18.20
2024-03-11T23:21:24.390Z,13.73
2024-03-11T23:23:52.006Z,11.43
2024-03-11T23:26:19.546Z,16.30
2024-03-11T23:28:47.279Z,19.23
2024-03-11T23:31:17.550Z,12.27
2024-03-11T23:33:45.282Z,13.50
2024-03-11T23:36:14.595Z,18.30
2024-03-11T23:38:42.278Z,14.27
2024-03-11T23:41:13.143Z,19.10
2024-03-11T23:43:42.134Z,14.87
2024-03-11T23:46:09.993Z,21.17
2024-03-11T23:48:44.361Z,13.83
2024-03-11T23:51:13.816Z,16.47
2024-03-11T23:53:41.611Z,20.40
2024-03-11T23:56:10.193Z,18.00
2024-03-11T23:58:38.832Z,14.53
